createdAt,value
2022-11-20T00:01:19.963Z,22.35
2022-11-20T00:03:47.344Z,23.00
2022-11-20T00:06:16.897Z,22.42
2022-11-20T00:08:44.283Z,24.52
2022-11-20T00:11:16.929Z,22.35
2022-11-20T00:13:48.719Z,23.88
2022-11-20T00:16:17.390Z,22.08
2022-11-20T00:18:44.842Z,24.52
2022-11-20T00:21:14.038Z,22.48
2022-11-20T00:23:41.060Z,24.55
2022-11-20T00:26:10.228Z,23.75
2022-11-20T00:28:37.154Z,23.33
2022-11-20T00:31:13.122Z,23.92
2022-11-20T00:33:40.263Z,23.60
2022-11-20T00:36:09.778Z,24.35
2022-11-20T00:38:36.816Z,26.63
2022-11-20T00:41:06.445Z,24.17
2022-11-20T00:43:33.604Z,21.85
2022-11-20T00:46:05.347Z,22.30
2022-11-20T00:48:32.493Z,23.27
2022-11-20T00:50:59.564Z,22.85
2022-11-20T00:53:26.245Z,22.00
2022-11-20T00:55:57.986Z,23.30
2022-11-20T00:58:26.061Z,18.80
2022-11-20T01:00:52.851Z,21.65
2022-11-20T01:03:25.617Z,23.02
2022-11-20T01:05:53.637Z,20.55
2022-11-20T01:08:20.276Z,20.60
2022-11-20T01:10:46.914Z,19.88
2022-11-20T01:13:32.132Z,20.98
2022-11-20T01:16:22.596Z,19.42
2022-11-20T01:18:51.560Z,22.58
2022-11-20T01:21:21.443Z,19.85
2022-11-20T01:23:49.674Z,19.17
2022-11-20T01:26:19.092Z,21.33
2022-11-20T01:28:46.250Z,21.95
2022-11-20T01:31:14.592Z,20.42
2022-11-20T01:33:42.080Z,21.77
2022-11-20T01:36:10.113Z,21.70
2022-11-20T01:38:36.818Z,22.13
2022-11-20T01:41:03.827Z,20.58
2022-11-20T01:43:30.820Z,22.02
2022-11-20T01:46:02.128Z,19.77
2022-11-20T01:48:41.770Z,20.48
2022-11-20T01:51:34.776Z,19.98
2022-11-20T01:54:06.059Z,20.27
2022-11-20T01:56:37.808Z,23.20
2022-11-20T01:59:06.902Z,21.17
2022-11-20T02:01:34.401Z,20.13
2022-11-20T02:04:01.977Z,21.20
2022-11-20T02:06:33.457Z,21.40
2022-11-20T02:09:00.140Z,20.88
2022-11-20T02:11:26.812Z,25.35
2022-11-20T02:13:55.211Z,20.17
2022-11-20T02:16:28.527Z,29.67
2022-11-20T02:18:57.276Z,23.48
2022-11-20T07:38:22.749Z,24.45
2022-11-20T07:40:55.395Z,33.50
2022-11-20T07:43:22.132Z,26.25
2022-11-20T07:45:50.722Z,23.92
2022-11-20T07:48:17.596Z,25.60
2022-11-20T07:50:44.318Z,28.92
2022-11-20T07:53:11.105Z,26.67
2022-11-20T07:55:37.776Z,27.63
2022-11-20T07:58:04.445Z,26.27
2022-11-20T08:00:31.498Z,28.73
2022-11-20T08:02:58.323Z,26.98
2022-11-20T08:05:25.036Z,26.80
2022-11-20T08:07:51.700Z,22.52
2022-11-20T08:10:18.528Z,23.98
2022-11-20T08:13:09.084Z,28.20
2022-11-20T08:15:36.761Z,25.25
2022-11-20T08:18:29.868Z,23.75
2022-11-20T08:20:52.889Z,32.63
2022-11-20T08:23:19.644Z,24.02
2022-11-20T08:25:50.803Z,27.95
2022-11-20T08:28:21.321Z,26.83
2022-11-20T08:30:49.209Z,29.30
2022-11-20T08:33:15.873Z,28.83
2022-11-20T08:35:43.830Z,25.75
2022-11-20T08:38:10.958Z,29.02
2022-11-20T08:40:37.799Z,31.20
2022-11-20T08:43:05.227Z,26.30
2022-11-20T08:45:35.247Z,28.27
2022-11-20T08:48:06.524Z,30.17
2022-11-20T08:50:33.961Z,26.83
2022-11-20T08:53:07.212Z,21.63
2022-11-20T08:55:36.550Z,23.48
2022-11-20T08:58:07.427Z,26.25
2022-11-20T09:00:35.219Z,19.65
2022-11-20T09:03:02.659Z,21.83
2022-11-20T09:05:29.917Z,19.08
2022-11-20T09:08:00.088Z,19.10
2022-11-20T09:10:27.663Z,19.60
2022-11-20T09:12:55.910Z,17.08
2022-11-20T09:15:22.898Z,19.88
2022-11-20T09:18:01.415Z,17.80
2022-11-20T09:20:30.252Z,18.55
2022-11-20T09:22:58.104Z,15.90
2022-11-20T09:25:25.005Z,16.98
2022-11-20T09:28:03.842Z,18.48
2022-11-20T09:30:31.864Z,20.75
2022-11-20T09:32:58.656Z,17.17
2022-11-20T09:35:27.945Z,18.73
2022-11-20T09:37:57.302Z,23.17
2022-11-20T09:40:29.153Z,18.85
2022-11-20T09:43:11.460Z,16.60
2022-11-20T09:45:50.555Z,15.32
2022-11-20T09:48:41.492Z,15.13
2022-11-20T09:51:45.316Z,18.63
2022-11-20T09:54:20.812Z,21.02
2022-11-20T09:57:01.044Z,15.57
2022-11-20T09:59:41.318Z,15.27
2022-11-20T10:02:19.507Z,13.70
2022-11-20T10:04:52.861Z,13.35
2022-11-20T10:07:41.915Z,14.18
2022-11-20T10:10:23.094Z,14.98
2022-11-20T10:12:52.827Z,13.98
2022-11-20T10:15:19.443Z,15.73
2022-11-20T10:18:20.099Z,17.48
2022-11-20T10:21:20.876Z,16.40
2022-11-20T10:23:53.479Z,16.98
2022-11-20T10:27:03.343Z,14.90
2022-11-20T10:29:39.224Z,14.00
2022-11-20T10:32:12.791Z,13.15
2022-11-20T10:34:49.900Z,12.88
2022-11-20T10:37:26.092Z,13.45
2022-11-20T10:39:57.295Z,14.52
2022-11-20T10:42:30.901Z,13.27
2022-11-20T10:45:14.604Z,17.02
2022-11-20T10:47:41.287Z,18.40
2022-11-20T10:50:15.330Z,17.23
2022-11-20T10:53:07.527Z,14.88
2022-11-20T10:55:43.447Z,12.02
2022-11-20T10:58:30.176Z,13.45
2022-11-20T11:01:17.026Z,13.93
2022-11-20T11:03:44.545Z,13.98
2022-11-20T11:06:28.819Z,14.60
2022-11-20T11:08:59.295Z,14.00
2022-11-20T11:11:30.854Z,13.98
2022-11-20T11:14:15.151Z,12.88
2022-11-20T11:16:56.062Z,11.23
2022-11-20T11:19:23.674Z,10.18
2022-11-20T11:21:57.464Z,9.77
2022-11-20T11:24:45.717Z,11.18
2022-11-20T11:27:18.483Z,12.73
2022-11-20T11:29:46.622Z,12.30
2022-11-20T11:32:23.121Z,9.68
2022-11-20T11:35:08.381Z,10.75
2022-11-20T11:37:37.703Z,10.68
2022-11-20T11:40:24.332Z,10.52
2022-11-20T11:42:58.014Z,11.45
2022-11-20T11:45:25.554Z,11.00
2022-11-20T11:47:55.061Z,10.63
2022-11-20T11:50:29.569Z,9.45
2022-11-20T11:53:24.690Z,10.80
2022-11-20T11:55:59.748Z,12.88
2022-11-20T11:58:49.326Z,11.18
2022-11-20T12:01:30.454Z,11.15
2022-11-20T12:04:25.548Z,11.25
2022-11-20T12:07:38.882Z,12.35
2022-11-20T12:09:59.503Z,14.32
2022-11-20T12:12:36.065Z,17.45
2022-11-20T12:15:05.208Z,12.18
2022-11-20T12:17:31.931Z,13.40
2022-11-20T12:19:58.626Z,14.45
2022-11-20T12:23:06.992Z,14.38
2022-11-20T12:25:37.528Z,13.65
2022-11-20T12:28:32.983Z,15.00
2022-11-20T12:31:36.862Z,12.18
2022-11-20T12:34:33.912Z,12.55
2022-11-20T12:37:12.037Z,12.95
2022-11-20T12:39:51.545Z,12.95
2022-11-20T12:43:02.748Z,16.02
2022-11-20T12:46:03.327Z,14.43
2022-11-20T12:49:00.812Z,11.73
2022-11-20T12:52:11.909Z,13.63
2022-11-20T12:55:28.607Z,13.50
2022-11-20T12:58:46.932Z,11.30
2022-11-20T13:01:43.581Z,12.47
2022-11-20T13:04:17.211Z,13.60
2022-11-20T13:06:56.905Z,11.82
2022-11-20T13:09:57.694Z,12.57
2022-11-20T13:12:52.814Z,12.75
2022-11-20T13:18:15.453Z,15.00
2022-11-20T13:20:45.893Z,14.40
2022-11-20T13:23:23.615Z,13.85
2022-11-20T13:25:50.970Z,16.05
2022-11-20T13:28:18.719Z,14.05
2022-11-20T13:30:53.867Z,14.88
2022-11-20T13:33:35.512Z,14.50
2022-11-20T13:36:05.491Z,15.02
2022-11-20T13:38:50.583Z,16.27
2022-11-20T13:41:32.313Z,17.25
2022-11-20T13:44:09.130Z,14.98
2022-11-20T13:49:17.715Z,16.00
2022-11-20T13:51:46.668Z,15.38
2022-11-20T13:54:18.715Z,14.73
2022-11-20T13:57:16.059Z,18.55
2022-11-20T14:00:05.986Z,17.17
2022-11-20T14:02:37.483Z,19.13
2022-11-20T14:05:05.900Z,16.73
2022-11-20T14:07:43.920Z,17.33
2022-11-20T14:10:31.793Z,16.58
2022-11-20T14:13:10.283Z,16.67
2022-11-20T14:15:41.860Z,16.65
2022-11-20T14:18:22.859Z,18.10
2022-11-20T14:20:49.870Z,18.85
2022-11-20T14:23:30.405Z,20.23
2022-11-20T14:25:57.975Z,18.88
2022-11-20T14:28:29.979Z,22.40
2022-11-20T14:30:57.829Z,15.85
2022-11-20T14:33:27.352Z,18.45
2022-11-20T14:35:59.246Z,17.65
2022-11-20T14:38:33.684Z,21.67
2022-11-20T14:41:17.428Z,22.40
2022-11-20T14:43:52.176Z,20.33
2022-11-20T14:46:19.167Z,18.42
2022-11-20T14:48:48.942Z,18.83
2022-11-20T14:51:32.300Z,20.20
2022-11-20T14:54:25.055Z,20.33
2022-11-20T14:57:03.357Z,19.25
2022-11-20T14:59:32.976Z,17.75
2022-11-20T15:02:06.745Z,17.23
2022-11-20T15:04:33.419Z,17.90
2022-11-20T15:07:01.768Z,19.90
2022-11-20T15:09:28.588Z,16.95
2022-11-20T15:12:01.204Z,16.65
2022-11-20T15:14:29.658Z,21.20
2022-11-20T15:16:56.530Z,16.20
2022-11-20T15:19:25.465Z,14.77
2022-11-20T15:21:52.307Z,16.90
2022-11-20T15:24:19.216Z,18.05
2022-11-20T15:26:46.210Z,15.88
2022-11-20T15:29:15.623Z,16.20
2022-11-20T15:31:44.213Z,17.60
2022-11-20T15:34:15.925Z,15.73
2022-11-20T15:36:43.641Z,16.23
2022-11-20T15:39:12.324Z,20.92
2022-11-20T15:41:39.617Z,31.13
2022-11-20T15:44:06.392Z,21.38
2022-11-20T15:46:42.379Z,17.55
2022-11-20T15:49:14.403Z,15.43
2022-11-20T15:51:44.461Z,16.52
2022-11-20T15:54:15.393Z,15.70
2022-11-20T15:56:42.230Z,15.15
2022-11-20T15:59:08.986Z,17.58
2022-11-20T16:01:35.940Z,14.30
2022-11-20T16:04:02.964Z,14.85
2022-11-20T16:06:29.621Z,13.52
2022-11-20T16:08:56.252Z,13.30
2022-11-20T16:11:22.903Z,17.98
2022-11-20T16:14:08.115Z,17.85
2022-11-20T16:16:36.896Z,15.48
2022-11-20T16:19:04.132Z,13.85
2022-11-20T16:21:32.231Z,15.80
2022-11-20T16:24:01.008Z,17.80
2022-11-20T16:26:28.381Z,15.27
2022-11-20T16:28:55.321Z,14.57
2022-11-20T16:31:22.587Z,18.02
2022-11-20T16:33:54.245Z,18.83
2022-11-20T16:36:22.694Z,16.40
2022-11-20T16:38:54.107Z,19.90
2022-11-20T16:41:20.964Z,24.25
2022-11-20T16:43:49.575Z,27.17
2022-11-20T16:46:17.420Z,16.75
2022-11-20T16:48:44.272Z,82.90
2022-11-20T16:51:12.974Z,26.55
2022-11-20T16:53:40.588Z,42.72
2022-11-20T16:56:17.860Z,23.05
2022-11-20T16:58:45.452Z,17.38
2022-11-20T17:01:14.883Z,19.60
2022-11-20T17:03:43.150Z,20.88
2022-11-20T17:06:18.137Z,20.77
2022-11-20T17:08:45.848Z,16.88
2022-11-20T17:11:15.548Z,20.25
2022-11-20T17:13:42.692Z,19.40
2022-11-20T17:16:12.330Z,23.67
2022-11-20T17:18:39.029Z,22.08
2022-11-20T17:21:06.163Z,21.77
2022-11-20T17:23:34.662Z,20.48
2022-11-20T17:26:04.482Z,19.23
2022-11-20T17:31:16.417Z,26.30
2022-11-20T17:33:48.559Z,20.95
2022-11-20T17:36:31.935Z,21.17
2022-11-20T17:39:04.648Z,21.15
2022-11-20T17:41:32.170Z,21.45
2022-11-20T17:44:07.301Z,24.42
2022-11-20T17:46:45.382Z,25.63
2022-11-20T17:49:12.958Z,33.03
2022-11-20T17:51:43.192Z,44.83
2022-11-20T17:54:18.821Z,41.22
2022-11-20T17:57:04.278Z,50.83
2022-11-20T17:59:37.525Z,38.50
2022-11-20T18:02:04.330Z,37.90
2022-11-20T18:04:31.108Z,40.28
2022-11-20T18:06:57.825Z,36.08
2022-11-20T18:09:27.135Z,44.17
2022-11-20T18:11:53.867Z,47.33
2022-11-20T18:14:32.195Z,52.55
2022-11-20T18:17:08.340Z,48.85
2022-11-20T18:19:47.975Z,42.17
2022-11-20T18:22:22.776Z,36.45
2022-11-20T18:24:49.628Z,35.15
2022-11-20T18:27:19.584Z,34.50
2022-11-20T18:29:48.709Z,39.85
2022-11-20T18:32:15.426Z,37.17
2022-11-20T18:34:42.087Z,38.88
2022-11-20T18:37:14.797Z,33.40
2022-11-20T18:39:50.204Z,35.13
2022-11-20T18:42:35.804Z,40.13
2022-11-20T18:45:10.481Z,36.53
2022-11-20T18:47:40.423Z,35.38
2022-11-20T18:50:10.467Z,36.88
2022-11-20T18:52:47.999Z,37.03
2022-11-20T18:55:21.814Z,32.42
2022-11-20T18:58:04.520Z,34.20
2022-11-20T19:00:33.966Z,33.72
2022-11-20T19:03:06.265Z,45.83
2022-11-20T19:05:38.812Z,58.05
2022-11-20T19:08:05.760Z,71.97
2022-11-20T19:10:40.221Z,57.22
2022-11-20T19:13:08.784Z,71.90
2022-11-20T19:15:37.724Z,64.65
2022-11-20T19:18:08.427Z,62.15
2022-11-20T19:20:35.465Z,46.75
2022-11-20T19:23:05.051Z,42.50
2022-11-20T19:25:37.689Z,36.67
2022-11-20T19:28:05.642Z,34.20
2022-11-20T19:30:41.408Z,33.55
2022-11-20T19:33:20.314Z,30.05
2022-11-20T19:35:47.748Z,26.55
2022-11-20T19:38:19.495Z,27.98
2022-11-20T19:40:50.343Z,26.33
2022-11-20T19:43:23.284Z,30.00
2022-11-20T19:45:50.466Z,28.40
2022-11-20T19:48:24.071Z,29.40
2022-11-20T19:50:52.382Z,28.80
2022-11-20T19:53:27.357Z,26.52
2022-11-20T19:55:59.277Z,28.88
2022-11-20T19:58:34.685Z,29.30
2022-11-20T20:01:25.426Z,31.73
2022-11-20T20:03:53.621Z,29.35
2022-11-20T20:06:28.138Z,36.13
2022-11-20T20:11:42.763Z,32.03
2022-11-20T20:14:23.136Z,29.83
2022-11-20T20:16:52.884Z,31.58
2022-11-20T20:19:19.649Z,33.85
2022-11-20T20:21:47.772Z,29.27
2022-11-20T20:24:14.449Z,29.15
2022-11-20T20:26:41.945Z,31.15
2022-11-20T20:29:08.724Z,31.30
2022-11-20T20:31:35.907Z,36.97
2022-11-20T20:34:05.209Z,38.17
2022-11-20T20:36:32.034Z,34.72
2022-11-20T20:38:59.691Z,37.05
2022-11-20T20:41:26.696Z,33.65
2022-11-20T20:44:12.500Z,27.73
2022-11-20T20:46:40.354Z,27.95
2022-11-20T20:49:07.508Z,29.73
2022-11-20T20:51:34.688Z,25.08
2022-11-20T20:54:01.867Z,22.30
2022-11-20T20:56:29.494Z,24.48
2022-11-20T20:58:56.185Z,22.80
2022-11-20T21:01:23.133Z,22.73
2022-11-20T21:03:49.914Z,26.63
2022-11-20T21:06:16.852Z,27.52
2022-11-20T21:08:44.662Z,26.70
2022-11-20T21:11:14.897Z,25.00
2022-11-20T21:13:43.150Z,26.77
2022-11-20T21:16:11.124Z,25.08
2022-11-20T21:18:38.272Z,23.67
2022-11-20T21:21:30.172Z,26.80
2022-11-20T21:23:57.346Z,30.42
2022-11-20T21:26:24.159Z,33.22
2022-11-20T21:28:50.961Z,28.92
2022-11-20T21:31:22.053Z,25.23
2022-11-20T21:33:50.532Z,25.38
2022-11-20T21:36:19.537Z,30.05
2022-11-20T21:38:47.118Z,29.13
2022-11-20T21:41:15.317Z,26.55
2022-11-20T21:43:44.932Z,24.30
2022-11-20T21:46:16.584Z,25.88
2022-11-20T21:48:44.817Z,25.67
2022-11-20T21:51:13.849Z,26.13
2022-11-20T21:53:40.772Z,24.17
2022-11-20T21:56:09.064Z,24.55
2022-11-20T21:58:36.610Z,24.27
2022-11-20T22:01:21.932Z,25.50
2022-11-20T22:03:50.612Z,32.42
2022-11-20T22:06:18.536Z,25.67
2022-11-20T22:08:45.617Z,24.42
2022-11-20T22:11:14.123Z,27.70
2022-11-20T22:13:59.874Z,24.63
2022-11-20T22:16:26.887Z,27.77
2022-11-20T22:18:55.712Z,23.88
2022-11-20T22:21:24.759Z,25.42
2022-11-20T22:23:56.791Z,30.90
2022-11-20T22:26:28.123Z,27.05
2022-11-20T22:28:57.288Z,26.52
2022-11-20T22:31:28.050Z,24.83
2022-11-20T22:33:55.061Z,26.88
2022-11-20T22:36:27.983Z,25.50
2022-11-20T22:38:55.541Z,25.38
2022-11-20T22:41:27.539Z,28.15
2022-11-20T22:43:59.279Z,26.10
2022-11-20T22:46:27.660Z,23.67
2022-11-20T22:49:02.968Z,24.55
2022-11-20T22:51:32.064Z,23.00
2022-11-20T22:53:59.666Z,24.10
2022-11-20T22:56:26.708Z,24.95
2022-11-20T22:58:54.256Z,24.60
2022-11-20T23:01:26.349Z,24.48
2022-11-20T23:03:59.738Z,25.42
2022-11-20T23:06:26.860Z,27.30
2022-11-20T23:08:53.620Z,23.20
2022-11-20T23:11:25.847Z,27.13
2022-11-20T23:13:55.987Z,24.63
2022-11-20T23:16:23.340Z,26.58
2022-11-20T23:18:57.666Z,25.98
2022-11-20T23:21:25.146Z,25.40
2022-11-20T23:23:53.933Z,26.52
2022-11-20T23:26:22.714Z,27.10
2022-11-20T23:28:49.581Z,24.70
2022-11-20T23:31:16.976Z,22.98
2022-11-20T23:33:45.815Z,24.52
2022-11-20T23:36:13.148Z,27.08
2022-11-20T23:38:39.904Z,26.00
2022-11-20T23:41:06.872Z,23.83
